createdAt,value
2022-09-24T00:01:57.682Z,12.10
2022-09-24T00:04:27.444Z,12.10
2022-09-24T00:06:55.514Z,12.10
2022-09-24T00:09:24.307Z,12.10
2022-09-24T00:11:53.331Z,12.10
2022-09-24T00:14:22.705Z,12.10
2022-09-24T00:16:50.728Z,12.00
2022-09-24T00:19:19.076Z,12.00
2022-09-24T00:21:47.260Z,12.00
2022-09-24T00:24:37.968Z,12.00
2022-09-24T00:27:06.338Z,12.00
2022-09-24T00:29:36.351Z,12.00
2022-09-24T00:32:05.725Z,12.00
2022-09-24T00:34:34.342Z,12.00
2022-09-24T00:37:02.542Z,12.00
2022-09-24T00:39:30.482Z,12.10
2022-09-24T00:41:58.375Z,12.10
2022-09-24T00:44:50.838Z,12.10
2022-09-24T00:47:29.820Z,12.10
2022-09-24T00:50:08.540Z,12.10
2022-09-24T00:52:44.643Z,12.20
2022-09-24T00:55:14.225Z,12.20
2022-09-24T00:57:43.449Z,12.20
2022-09-24T01:00:14.361Z,12.20
2022-09-24T01:02:45.582Z,12.20
2022-09-24T01:05:13.604Z,12.20
2022-09-24T01:07:41.461Z,12.20
2022-09-24T01:10:10.424Z,12.20
2022-09-24T01:12:45.092Z,12.20
2022-09-24T01:15:21.951Z,12.20
2022-09-24T01:17:59.387Z,12.20
2022-09-24T01:20:53.801Z,12.20
2022-09-24T01:23:48.858Z,12.20
2022-09-24T01:26:33.164Z,12.20
2022-09-24T01:29:33.012Z,12.20
2022-09-24T01:32:05.702Z,12.20
2022-09-24T01:34:38.650Z,12.20
2022-09-24T01:37:07.177Z,12.20
2022-09-24T01:39:38.847Z,12.20
2022-09-24T01:42:10.959Z,12.20
2022-09-24T01:44:44.644Z,12.20
2022-09-24T01:47:19.530Z,12.30
2022-09-24T01:49:48.035Z,12.30
2022-09-24T01:52:21.668Z,12.20
2022-09-24T01:54:52.207Z,12.20
2022-09-24T01:57:23.976Z,12.30
2022-09-24T01:59:58.685Z,12.30
2022-09-24T02:02:31.560Z,12.30
2022-09-24T02:05:03.866Z,12.30
2022-09-24T02:07:37.967Z,12.20
2022-09-24T02:10:06.744Z,12.20
2022-09-24T02:12:42.277Z,12.20
2022-09-24T02:15:14.154Z,12.30
2022-09-24T02:17:44.584Z,12.20
2022-09-24T02:20:16.115Z,12.20
2022-09-24T02:22:46.255Z,12.20
2022-09-24T02:25:17.776Z,12.20
2022-09-24T02:27:45.756Z,12.20
2022-09-24T02:30:15.151Z,12.20
2022-09-24T02:32:45.018Z,12.20
2022-09-24T02:35:13.121Z,12.20
2022-09-24T02:37:43.778Z,12.20
2022-09-24T02:40:13.745Z,12.20
2022-09-24T02:42:43.376Z,12.20
2022-09-24T02:45:14.470Z,12.10
2022-09-24T02:47:43.708Z,12.10
2022-09-24T02:50:11.569Z,12.10
2022-09-24T02:52:39.503Z,12.20
2022-09-24T02:55:07.792Z,12.10
2022-09-24T02:57:35.900Z,12.10
2022-09-24T03:00:06.148Z,12.10
2022-09-24T03:02:34.265Z,12.10
2022-09-24T03:05:03.677Z,12.10
2022-09-24T03:07:31.632Z,12.10
2022-09-24T03:09:59.534Z,12.10
2022-09-24T03:12:27.494Z,12.10
2022-09-24T03:14:55.350Z,12.00
2022-09-24T03:17:23.295Z,12.00
2022-09-24T03:19:51.167Z,12.10
2022-09-24T03:22:20.448Z,12.00
2022-09-24T03:24:48.432Z,12.00
2022-09-24T03:27:16.378Z,12.00
2022-09-24T03:30:01.864Z,12.00
2022-09-24T03:32:29.959Z,12.00
2022-09-24T03:34:57.830Z,12.00
2022-09-24T03:37:27.300Z,12.00
2022-09-24T03:39:55.237Z,12.00
2022-09-24T03:42:23.134Z,12.00
2022-09-24T03:44:54.169Z,12.00
2022-09-24T03:47:22.106Z,12.00
2022-09-24T03:49:50.020Z,12.00
2022-09-24T03:52:18.127Z,12.00
2022-09-24T03:54:47.473Z,12.00
2022-09-24T03:57:15.775Z,12.00
2022-09-24T03:59:44.297Z,12.00
2022-09-24T04:02:13.125Z,12.10
2022-09-24T04:04:41.176Z,11.90
2022-09-24T04:07:09.107Z,11.90
2022-09-24T04:09:37.061Z,11.90
2022-09-24T04:12:07.345Z,11.90
2022-09-24T04:14:35.225Z,11.90
2022-09-24T04:17:03.682Z,11.90
2022-09-24T04:19:32.290Z,12.00
2022-09-24T04:22:00.170Z,11.90
2022-09-24T04:24:28.388Z,11.90
2022-09-24T04:26:56.458Z,12.00
2022-09-24T04:29:25.788Z,12.00
2022-09-24T04:31:53.796Z,12.00
2022-09-24T04:34:21.857Z,12.00
2022-09-24T04:36:49.721Z,12.00
2022-09-24T04:39:17.625Z,12.00
2022-09-24T04:41:47.853Z,12.00
2022-09-24T04:44:15.939Z,12.00
2022-09-24T04:46:45.357Z,12.00
2022-09-24T04:49:14.120Z,12.00
2022-09-24T04:51:42.122Z,12.10
2022-09-24T04:54:10.671Z,12.00
2022-09-24T04:56:38.575Z,12.10
2022-09-24T04:59:06.508Z,12.10
2022-09-24T05:01:34.537Z,12.10
2022-09-24T05:04:03.943Z,12.10
2022-09-24T05:06:31.856Z,12.10
2022-09-24T05:08:59.894Z,12.10
2022-09-24T05:11:27.804Z,12.10
2022-09-24T05:13:55.987Z,12.10
2022-09-24T05:16:24.005Z,12.10
2022-09-24T05:18:51.913Z,12.10
2022-09-24T05:21:21.378Z,12.10
2022-09-24T05:23:49.304Z,12.10
2022-09-24T05:26:34.400Z,12.10
2022-09-24T05:29:02.427Z,12.10
2022-09-24T05:31:30.626Z,12.20
2022-09-24T05:33:58.668Z,12.20
2022-09-24T05:36:27.960Z,12.20
2022-09-24T05:38:55.928Z,12.20
2022-09-24T05:41:24.536Z,12.20
2022-09-24T05:43:52.553Z,12.20
2022-09-24T05:46:20.582Z,12.20
2022-09-24T05:48:49.676Z,12.20
2022-09-24T05:51:17.745Z,12.20
2022-09-24T05:53:47.159Z,12.20
2022-09-24T05:56:15.689Z,12.20
2022-09-24T05:58:43.613Z,12.20
2022-09-24T06:01:11.558Z,12.20
2022-09-24T06:03:39.483Z,12.30
2022-09-24T06:06:07.808Z,12.30
2022-09-24T06:08:35.949Z,12.40
2022-09-24T06:11:08.449Z,12.40
2022-09-24T06:13:36.616Z,12.40
2022-09-24T06:16:07.520Z,12.40
2022-09-24T06:18:36.288Z,12.40
2022-09-24T06:21:06.817Z,12.40
2022-09-24T06:23:35.320Z,12.40
2022-09-24T06:26:03.625Z,12.50
2022-09-24T06:28:33.006Z,12.50
2022-09-24T06:31:01.466Z,12.50
2022-09-24T06:33:30.553Z,12.60
2022-09-24T06:36:01.968Z,12.60
2022-09-24T06:38:30.916Z,12.60
2022-09-24T06:41:01.113Z,12.70
2022-09-24T06:43:29.161Z,12.70
2022-09-24T06:45:59.796Z,12.60
2022-09-24T06:48:28.552Z,12.60
2022-09-24T06:50:57.409Z,12.60
2022-09-24T06:53:25.778Z,12.70
2022-09-24T06:55:57.018Z,12.80
2022-09-24T06:58:24.931Z,12.80
2022-09-24T07:00:54.690Z,12.80
2022-09-24T07:03:24.081Z,13.00
2022-09-24T07:05:52.291Z,12.90
2022-09-24T07:08:20.313Z,13.00
2022-09-24T07:10:50.000Z,13.00
2022-09-24T07:13:18.385Z,13.00
2022-09-24T07:15:46.571Z,13.10
2022-09-24T07:18:14.971Z,13.10
2022-09-24T07:20:44.302Z,13.10
2022-09-24T07:23:13.367Z,13.20
2022-09-24T07:25:41.459Z,13.20
2022-09-24T07:28:11.443Z,13.30
2022-09-24T07:30:40.164Z,13.40
2022-09-24T07:33:08.757Z,13.40
2022-09-24T07:35:38.948Z,13.50
2022-09-24T07:38:11.966Z,13.50
2022-09-24T07:40:40.394Z,13.60
2022-09-24T07:43:13.721Z,13.60
2022-09-24T07:45:42.801Z,13.70
2022-09-24T07:48:12.802Z,13.70
2022-09-24T07:50:42.642Z,13.70
2022-09-24T07:53:13.218Z,13.80
2022-09-24T07:55:41.683Z,13.80
2022-09-24T07:58:12.648Z,13.90
2022-09-24T08:00:41.444Z,14.00
2022-09-24T08:03:09.466Z,14.00
2022-09-24T08:05:37.678Z,14.00
2022-09-24T08:08:06.970Z,14.10
2022-09-24T08:10:38.083Z,14.10
2022-09-24T08:13:06.071Z,14.10
2022-09-24T08:15:34.142Z,14.20
2022-09-24T08:18:03.291Z,14.20
2022-09-24T08:20:31.368Z,14.20
2022-09-24T08:23:02.115Z,14.20
2022-09-24T08:25:32.866Z,14.30
2022-09-24T08:28:04.435Z,14.20
2022-09-24T08:30:33.281Z,14.20
2022-09-24T08:33:01.249Z,14.20
2022-09-24T08:35:29.164Z,14.20
2022-09-24T08:38:01.203Z,14.20
2022-09-24T08:40:32.558Z,14.20
2022-09-24T08:43:08.164Z,14.20
2022-09-24T08:46:01.665Z,14.10
2022-09-24T08:48:34.243Z,14.00
2022-09-24T08:51:06.696Z,14.00
2022-09-24T08:53:43.904Z,14.00
2022-09-24T08:56:13.168Z,14.00
2022-09-24T08:58:48.216Z,14.00
2022-09-24T09:01:30.236Z,14.00
2022-09-24T09:04:03.496Z,14.10
2022-09-24T09:06:54.510Z,14.10
2022-09-24T09:09:25.616Z,14.10
2022-09-24T09:12:00.099Z,14.10
2022-09-24T09:14:42.022Z,14.10
2022-09-24T09:17:19.487Z,14.00
2022-09-24T09:19:55.162Z,14.00
2022-09-24T09:22:27.640Z,14.00
2022-09-24T09:25:01.265Z,14.00
2022-09-24T09:27:31.792Z,14.00
2022-09-24T09:30:09.255Z,14.00
2022-09-24T09:32:50.800Z,13.90
2022-09-24T09:35:24.862Z,13.90
2022-09-24T09:38:05.293Z,13.90
2022-09-24T09:40:37.495Z,14.10
2022-09-24T09:43:10.797Z,14.20
2022-09-24T09:45:47.921Z,14.40
2022-09-24T09:48:17.662Z,14.50
2022-09-24T09:50:48.897Z,14.70
2022-09-24T09:53:21.725Z,14.70
2022-09-24T09:55:55.638Z,14.80
2022-09-24T09:58:26.023Z,14.90
2022-09-24T10:01:05.902Z,15.10
2022-09-24T10:03:47.738Z,15.20
2022-09-24T10:06:24.840Z,15.20
2022-09-24T10:08:53.015Z,15.40
2022-09-24T10:11:23.309Z,15.40
2022-09-24T10:14:03.457Z,15.40
2022-09-24T10:16:38.994Z,15.50
2022-09-24T10:19:17.286Z,15.40
2022-09-24T10:21:45.322Z,15.30
2022-09-24T10:24:17.463Z,15.30
2022-09-24T10:26:46.908Z,15.30
2022-09-24T10:29:35.122Z,15.30
2022-09-24T10:32:06.019Z,15.40
2022-09-24T10:34:34.475Z,15.20
2022-09-24T10:37:10.816Z,15.00
2022-09-24T10:39:39.354Z,15.10
2022-09-24T10:42:08.064Z,15.10
2022-09-24T10:44:38.400Z,15.10
2022-09-24T10:47:21.485Z,15.10
2022-09-24T10:50:21.058Z,15.10
2022-09-24T10:52:54.286Z,15.10
2022-09-24T10:55:38.584Z,15.20
2022-09-24T10:58:25.967Z,15.20
2022-09-24T11:01:05.269Z,15.30
2022-09-24T11:04:12.659Z,15.50
2022-09-24T11:06:51.793Z,15.60
2022-09-24T11:09:29.712Z,15.70
2022-09-24T11:12:09.324Z,15.70
2022-09-24T11:14:53.263Z,15.70
2022-09-24T11:17:32.220Z,15.60
2022-09-24T11:20:30.647Z,15.60
2022-09-24T11:23:14.076Z,15.80
2022-09-24T11:25:48.580Z,15.80
2022-09-24T11:28:44.948Z,15.50
2022-09-24T11:31:19.956Z,15.40
2022-09-24T11:34:07.553Z,15.40
2022-09-24T11:36:51.658Z,15.30
2022-09-24T11:39:30.833Z,15.20
2022-09-24T11:42:06.274Z,15.20
2022-09-24T11:44:54.755Z,15.00
2022-09-24T11:47:36.452Z,14.90
2022-09-24T11:50:18.711Z,14.70
2022-09-24T11:52:53.142Z,14.60
2022-09-24T11:55:25.796Z,14.50
2022-09-24T11:58:01.384Z,14.60
2022-09-24T12:00:40.570Z,14.50
2022-09-24T12:03:19.055Z,14.60
2022-09-24T12:05:55.742Z,14.80
2022-09-24T12:08:30.510Z,14.80
2022-09-24T12:11:05.014Z,14.90
2022-09-24T12:13:38.943Z,15.10
2022-09-24T12:16:11.790Z,15.20
2022-09-24T12:18:46.043Z,15.30
2022-09-24T12:21:19.583Z,15.40
2022-09-24T12:23:51.284Z,15.40
2022-09-24T12:26:21.982Z,15.40
2022-09-24T12:29:16.873Z,15.40
2022-09-24T12:32:26.896Z,15.50
2022-09-24T12:35:03.463Z,15.40
2022-09-24T12:37:35.730Z,15.50
2022-09-24T12:40:14.167Z,15.40
2022-09-24T12:42:49.559Z,15.20
2022-09-24T12:45:22.363Z,15.20
2022-09-24T12:47:55.347Z,15.30
2022-09-24T12:50:25.753Z,15.40
2022-09-24T12:52:54.574Z,15.40
2022-09-24T12:55:26.760Z,15.30
2022-09-24T12:57:57.853Z,15.20
2022-09-24T13:00:38.713Z,15.10
2022-09-24T13:03:08.418Z,15.10
2022-09-24T13:05:48.424Z,15.10
2022-09-24T13:08:27.143Z,15.10
2022-09-24T13:10:58.809Z,15.10
2022-09-24T13:13:29.131Z,15.10
2022-09-24T13:16:03.016Z,15.20
2022-09-24T13:18:33.023Z,15.20
2022-09-24T13:21:04.466Z,15.20
2022-09-24T13:23:51.142Z,15.10
2022-09-24T13:26:33.738Z,15.10
2022-09-24T13:29:03.257Z,15.10
2022-09-24T13:31:38.659Z,15.10
2022-09-24T13:34:17.032Z,15.30
2022-09-24T13:36:49.767Z,15.30
2022-09-24T13:39:22.624Z,15.30
2022-09-24T13:42:00.840Z,15.30
2022-09-24T13:44:34.382Z,15.30
2022-09-24T13:47:13.709Z,15.20
2022-09-24T13:49:45.674Z,15.30
2022-09-24T13:52:18.638Z,15.30
2022-09-24T13:54:53.206Z,15.20
2022-09-24T13:57:25.407Z,15.20
2022-09-24T14:00:06.397Z,15.20
2022-09-24T14:02:38.810Z,15.20
2022-09-24T14:05:16.228Z,15.20
2022-09-24T14:07:53.420Z,15.10
2022-09-24T14:10:24.795Z,15.10
2022-09-24T14:13:03.105Z,15.10
2022-09-24T14:15:31.041Z,15.00
2022-09-24T14:17:59.331Z,15.10
2022-09-24T14:20:30.395Z,15.00
2022-09-24T14:22:58.388Z,15.00
2022-09-24T14:25:29.934Z,15.00
2022-09-24T14:28:02.754Z,15.00
2022-09-24T14:30:33.499Z,15.00
2022-09-24T14:33:04.423Z,14.90
2022-09-24T14:35:34.513Z,14.80
2022-09-24T14:38:08.746Z,14.80
2022-09-24T14:40:44.428Z,14.80
2022-09-24T14:43:28.916Z,14.60
2022-09-24T14:46:03.489Z,14.40
2022-09-24T14:48:33.248Z,14.10
2022-09-24T14:51:01.787Z,13.90
2022-09-24T14:53:33.138Z,13.80
2022-09-24T14:56:02.511Z,13.70
2022-09-24T14:58:37.280Z,13.70
2022-09-24T15:01:13.813Z,13.60
2022-09-24T15:03:45.546Z,13.40
2022-09-24T15:06:21.524Z,13.30
2022-09-24T15:09:00.540Z,13.30
2022-09-24T15:11:31.375Z,13.10
2022-09-24T15:14:02.838Z,13.20
2022-09-24T15:16:33.802Z,13.10
2022-09-24T15:19:20.425Z,13.10
2022-09-24T15:21:49.572Z,13.10
2022-09-24T15:24:18.231Z,13.00
2022-09-24T15:26:47.851Z,13.00
2022-09-24T15:29:23.921Z,13.00
2022-09-24T15:31:51.984Z,13.10
2022-09-24T15:34:20.625Z,13.10
2022-09-24T15:36:49.316Z,13.20
2022-09-24T15:39:18.988Z,13.20
2022-09-24T15:41:48.358Z,13.20
2022-09-24T15:44:27.290Z,13.20
2022-09-24T15:46:59.556Z,13.10
2022-09-24T15:49:30.078Z,13.00
2022-09-24T15:52:03.423Z,13.00
2022-09-24T15:57:50.435Z,13.00
2022-09-24T16:00:22.169Z,12.90
2022-09-24T16:02:53.059Z,12.90
2022-09-24T16:05:21.469Z,13.00
2022-09-24T16:07:49.574Z,13.00
2022-09-24T16:10:18.434Z,13.00
2022-09-24T16:12:46.367Z,12.90
2022-09-24T16:15:16.586Z,13.00
2022-09-24T16:17:45.957Z,12.90
2022-09-24T16:20:13.929Z,12.90
2022-09-24T16:22:41.882Z,12.80
2022-09-24T16:25:10.304Z,12.90
2022-09-24T16:27:38.494Z,12.90
2022-09-24T16:30:07.698Z,12.90
2022-09-24T16:32:35.615Z,12.90
2022-09-24T16:35:05.231Z,12.90
2022-09-24T16:37:33.236Z,12.90
2022-09-24T16:40:01.121Z,12.90
2022-09-24T16:42:29.073Z,12.90
2022-09-24T16:44:57.193Z,12.90
2022-09-24T16:47:25.789Z,12.90
2022-09-24T16:49:55.431Z,12.90
2022-09-24T16:52:24.958Z,12.90
2022-09-24T16:54:52.926Z,12.90
2022-09-24T16:57:23.934Z,12.90
2022-09-24T16:59:51.872Z,12.90
2022-09-24T17:02:20.324Z,12.90
2022-09-24T17:04:48.314Z,12.90
2022-09-24T17:07:16.323Z,12.80
2022-09-24T17:10:03.403Z,12.90
2022-09-24T17:12:31.384Z,12.90
2022-09-24T17:15:01.955Z,12.90
2022-09-24T17:17:30.300Z,12.90
2022-09-24T17:19:58.337Z,12.90
2022-09-24T17:22:26.321Z,12.90
2022-09-24T17:24:55.642Z,12.90
2022-09-24T17:27:23.574Z,12.90
2022-09-24T17:29:51.858Z,12.90
2022-09-24T17:32:19.894Z,12.90
2022-09-24T17:34:47.991Z,13.00
2022-09-24T17:37:15.975Z,12.90
2022-09-24T17:39:43.876Z,13.00
2022-09-24T17:42:13.140Z,12.90
2022-09-24T17:44:41.065Z,13.00
2022-09-24T17:47:09.061Z,13.00
2022-09-24T17:49:37.081Z,13.00
2022-09-24T17:52:05.401Z,13.00
2022-09-24T17:54:33.676Z,13.00
2022-09-24T17:57:02.145Z,13.00
2022-09-24T17:59:31.501Z,13.00
2022-09-24T18:01:59.518Z,13.00
2022-09-24T18:04:31.015Z,13.00
2022-09-24T18:06:58.950Z,13.00
2022-09-24T18:09:26.975Z,13.00
2022-09-24T18:11:56.783Z,13.00
2022-09-24T18:14:25.791Z,13.00
2022-09-24T18:16:55.216Z,13.00
2022-09-24T18:19:23.281Z,13.00
2022-09-24T18:21:51.157Z,12.90
2022-09-24T18:24:21.693Z,13.00
2022-09-24T18:26:51.805Z,12.90
2022-09-24T18:29:21.021Z,12.90
2022-09-24T18:31:51.573Z,13.00
2022-09-24T18:34:21.033Z,12.90
2022-09-24T18:36:48.993Z,12.90
2022-09-24T18:39:23.939Z,12.90
2022-09-24T18:41:53.339Z,12.90
2022-09-24T18:44:21.262Z,12.80
2022-09-24T18:46:49.730Z,12.80
2022-09-24T18:49:19.569Z,12.80
2022-09-24T18:51:49.083Z,12.80
2022-09-24T18:54:18.103Z,12.80
2022-09-24T18:56:46.584Z,12.80
2022-09-24T18:59:16.454Z,12.80
2022-09-24T19:01:45.440Z,12.80
2022-09-24T19:04:14.872Z,12.70
2022-09-24T19:06:45.439Z,12.70
2022-09-24T19:09:17.273Z,12.70
2022-09-24T19:11:45.815Z,12.70
2022-09-24T19:14:17.918Z,12.70
2022-09-24T19:16:45.879Z,12.70
2022-09-24T19:19:14.168Z,12.70
2022-09-24T19:21:42.161Z,12.60
2022-09-24T19:24:10.806Z,12.60
2022-09-24T19:26:40.143Z,12.60
2022-09-24T19:29:08.118Z,12.60
2022-09-24T19:31:38.635Z,12.60
2022-09-24T19:34:08.010Z,12.60
2022-09-24T19:36:43.039Z,12.60
2022-09-24T19:39:12.647Z,12.60
2022-09-24T19:41:42.369Z,12.60
2022-09-24T19:44:10.895Z,12.60
2022-09-24T19:46:39.399Z,12.50
2022-09-24T19:49:07.647Z,12.50
2022-09-24T19:51:37.103Z,12.50
2022-09-24T19:54:07.666Z,12.50
2022-09-24T19:56:36.388Z,12.40
2022-09-24T19:59:07.850Z,12.40
2022-09-24T20:01:35.906Z,12.40
2022-09-24T20:04:06.230Z,12.40
2022-09-24T20:06:38.148Z,12.30
2022-09-24T20:09:06.572Z,12.30
2022-09-24T20:11:34.568Z,12.30
2022-09-24T20:14:03.212Z,12.30
2022-09-24T20:16:33.422Z,12.30
2022-09-24T20:19:03.181Z,12.30
2022-09-24T20:21:34.495Z,12.20
2022-09-24T20:24:03.960Z,12.20
2022-09-24T20:26:49.807Z,12.20
2022-09-24T20:29:19.588Z,12.20
2022-09-24T20:31:52.638Z,12.20
2022-09-24T20:34:22.126Z,12.20
2022-09-24T20:36:50.681Z,12.20
2022-09-24T20:39:19.514Z,12.20
2022-09-24T20:41:49.278Z,12.20
2022-09-24T20:44:17.261Z,12.20
2022-09-24T20:46:45.437Z,12.10
2022-09-24T20:49:22.256Z,12.10
2022-09-24T20:51:56.220Z,12.10
2022-09-24T20:54:25.582Z,12.10
2022-09-24T20:56:53.582Z,12.10
2022-09-24T20:59:21.542Z,12.10
2022-09-24T21:01:49.815Z,12.00
2022-09-24T21:04:19.967Z,12.00
2022-09-24T21:06:48.281Z,12.00
2022-09-24T21:09:16.900Z,12.00
2022-09-24T21:11:44.929Z,12.00
2022-09-24T21:14:14.574Z,11.90
2022-09-24T21:16:42.633Z,12.00
2022-09-24T21:19:11.384Z,11.90
2022-09-24T21:21:40.980Z,11.90
2022-09-24T21:24:11.769Z,11.90
2022-09-24T21:26:40.721Z,12.00
2022-09-24T21:29:11.494Z,11.90
2022-09-24T21:31:41.958Z,11.90
2022-09-24T21:34:10.204Z,11.90
2022-09-24T21:36:44.562Z,11.80
2022-09-24T21:39:15.354Z,11.80
2022-09-24T21:41:43.975Z,11.80
2022-09-24T21:44:14.095Z,11.80
2022-09-24T21:46:43.686Z,11.80
2022-09-24T21:49:12.244Z,11.80
2022-09-24T21:51:43.168Z,11.80
2022-09-24T21:54:15.378Z,11.70
2022-09-24T21:56:43.652Z,11.70
2022-09-24T21:59:25.685Z,11.70
2022-09-24T22:01:54.283Z,11.70
2022-09-24T22:04:22.838Z,11.60
2022-09-24T22:06:52.499Z,11.60
2022-09-24T22:09:21.462Z,11.50
2022-09-24T22:11:51.346Z,11.60
2022-09-24T22:14:19.494Z,11.50
2022-09-24T22:16:47.414Z,11.50
2022-09-24T22:19:15.443Z,11.50
2022-09-24T22:21:43.373Z,11.50
2022-09-24T22:24:12.884Z,11.50
2022-09-24T22:26:40.965Z,11.40
2022-09-24T22:29:09.013Z,11.40
2022-09-24T22:31:37.025Z,11.40
2022-09-24T22:34:22.800Z,11.30
2022-09-24T22:36:51.644Z,11.30
2022-09-24T22:39:20.998Z,11.30
2022-09-24T22:41:49.318Z,11.20
2022-09-24T22:44:17.279Z,11.20
2022-09-24T22:46:45.206Z,11.20
2022-09-24T22:49:13.411Z,11.10
2022-09-24T22:51:41.347Z,11.10
2022-09-24T22:54:10.054Z,11.10
2022-09-24T22:56:39.573Z,11.00
2022-09-24T22:59:07.746Z,11.00
2022-09-24T23:01:40.075Z,11.00
2022-09-24T23:04:08.301Z,10.90
2022-09-24T23:06:37.209Z,10.80
2022-09-24T23:09:05.249Z,10.80
2022-09-24T23:11:34.386Z,10.70
2022-09-24T23:14:05.399Z,10.70
2022-09-24T23:16:35.367Z,10.60
2022-09-24T23:19:05.401Z,10.50
2022-09-24T23:21:34.133Z,10.50
2022-09-24T23:24:03.835Z,10.50
2022-09-24T23:26:32.511Z,10.40
2022-09-24T23:29:01.556Z,10.40
2022-09-24T23:31:34.184Z,10.40
2022-09-24T23:34:02.559Z,10.50
2022-09-24T23:36:32.876Z,10.40
2022-09-24T23:39:01.352Z,10.40
2022-09-24T23:41:31.476Z,10.40
2022-09-24T23:44:00.043Z,10.40
2022-09-24T23:46:28.400Z,10.40
2022-09-24T23:48:58.043Z,10.40
2022-09-24T23:51:26.898Z,10.40
2022-09-24T23:53:55.102Z,10.40
2022-09-24T23:56:23.137Z,10.40
2022-09-24T23:58:51.068Z,10.40
